Observations

85.1 °F / 29.5 °C
ENE at 14 MPH
73%
75.7°F / 24.3 °C
29.79" (1008 mb)
10 mile(s)
partly cloudy
2019.12.09 0540 UTC

Observations

Surface


Raw METARs

2019/12/09 05:40
PKWA 090540Z AUTO 07012KT 10SM SCT025 SCT036 30/24 A2979 RMK AO2 T02950243

Translated METAR

Kwajalein, Bucholz AAF, Kwajalein KMR ATOL Airport, Marshall Islands (PKWA) 08-43N 167-44E 2M
Dec 09, 2019 - 12:40 AM EST / 2019.12.09 0540 UTC
Wind: from the ENE (070 degrees) at 14 MPH (12 KT):0
Visibility: 10 mile(s):0
Sky conditions: partly cloudy
Temperature: 85.1 F (29.5 C)
Heat index: 94.1 F (34.5 C):1
Dew Point: 75.7 F (24.3 C)
Relative Humidity: 73%
Pressure (altimeter): 29.79 in. Hg (1008 hPa)
ob: PKWA 090540Z AUTO 07012KT 10SM SCT025 SCT036 30/24 A2979 RMK AO2 T02950243
cycle: 5



Upper Air


Latest Skew-T

Skew T Diagram

Latest Data File